Latest Coastal Weather Observations for Hogan Island

IDT60701

Issued at 11:11 pm EST Tuesday 21 April 2015 (issued every 10 minutes, with the page automatically refreshed every 10 minutes)

About coastal observations | Map of coastal stations | Coastal observations for TAS | Marine services | Other Formats
Station Details ID: 200838 Name: HOGAN ISLAND Lat: -39.22 Lon: 146.98 Height: 116.0 m
Data from the previous 72 hours. | See also: Recent months at Hogan Island
Date/Time
EST
Temp

°C
Wind Pressure Rain
since 9am
mm
Weather Cloud Vis
km
Sea
Height
m
Swell
Dir
 
Speed
knots
Gust
knots
hPa Trend Height
m
Period
s
Dir
21/11:00pm 13.1 SE 13 15 1029.6 - 0.0 - - - - - - -
21/10:30pm 13.7 ESE 14 17 1029.9 - 0.0 - - - - - - -
21/10:00pm 13.5 ESE 16 19 1030.3 - 0.0 - - - - - - -
21/09:30pm 13.5 ESE 15 17 1030.5 - 0.0 - - - - - - -
21/09:00pm 13.6 SE 14 17 1030.5 - 0.0 - - - - - - -
21/08:30pm 13.1 SE 14 18 1030.6 - 0.0 - - - - - - -
21/08:00pm 13.0 SSE 14 17 1030.5 - 0.0 - - - - - - -
21/07:30pm 13.0 SSE 14 17 1030.7 - 0.0 - - - - - - -
21/07:00pm 13.6 SSE 14 18 1030.8 - 0.0 - - - - - - -
21/06:30pm 13.0 SE 13 16 1030.8 - 0.0 - - - - - - -
21/06:00pm 13.4 ESE 12 15 1030.5 - 0.0 - - - - - - -
21/05:30pm 12.6 SE 10 13 1030.6 - 0.0 - - - - - - -
21/05:00pm 13.1 SE 9 11 1030.7 - 0.0 - - - - - - -
21/04:30pm 13.9 ESE 9 11 1030.9 - 0.0 - - - - - - -
21/04:00pm 14.6 E 10 12 1031.1 - 0.0 - - - - - - -
21/03:30pm 14.9 E 10 13 1031.0 - 0.0 - - - - - - -
21/03:00pm 15.0 E 11 14 1031.1 - 0.0 - - - - - - -
21/02:30pm 15.3 E 11 13 1031.1 - 0.0 - - - - - - -
21/02:00pm 15.4 E 12 14 1031.0 - 0.0 - - - - - - -
21/01:30pm 15.7 E 13 16 1031.1 - 0.0 - - - - - - -
21/01:00pm 15.9 ESE 13 17 1031.4 - 0.0 - - - - - - -
21/12:30pm 16.0 ESE 12 16 1031.8 - 0.0 - - - - - - -
21/12:00pm 16.1 ESE 12 15 1032.0 - 0.0 - - - - - - -
21/11:30am 15.8 ESE 12 16 1032.3 - 0.0 - - - - - - -
21/11:00am 15.6 ESE 13 16 1032.6 - 0.0 - - - - - - -
21/10:30am 15.5 ESE 12 15 1032.8 - 0.0 - - - - - - -
21/10:00am 15.3 ESE 10 13 1033.1 - 0.0 - - - - - - -
21/09:30am 14.7 ESE 10 12 1033.1 - 0.0 - - - - - - -
21/09:00am 14.5 ESE 11 14 1033.2 - 0.0 - - - - - - -
21/08:30am 14.0 E 9 13 1033.5 - 0.0 - - - - - - -
21/08:00am 13.2 SE 8 11 1033.5 - 0.0 - - - - - - -
21/07:30am 12.1 SE 9 13 1033.4 - 0.0 - - - - - - -
21/07:00am 10.9 SE 8 11 1033.2 - 0.0 - - - - - - -
21/06:30am 10.1 SE 8 10 1033.0 - 0.0 - - - - - - -
21/06:00am 10.2 SSE 8 11 1033.0 - 0.0 - - - - - - -
21/05:30am 10.1 SSE 8 12 1032.8 - 0.0 - - - - - - -
21/05:00am 10.1 S 8 9 1032.5 - 0.0 - - - - - - -
21/04:30am 10.0 S 8 11 1032.4 - 0.0 - - - - - - -
21/04:00am 9.9 S 6 8 1032.3 - 0.0 - - - - - - -
21/03:30am 9.7 S 7 8 1032.5 - 0.0 - - - - - - -
21/03:00am 10.4 SE 4 5 1032.9 - 0.0 - - - - - - -
21/02:30am 10.2 E 6 8 1033.3 - 0.0 - - - - - - -
21/02:00am 10.0 SE 6 8 1033.6 - 0.0 - - - - - - -
21/01:30am 10.1 SE 6 8 1033.9 - 0.0 - - - - - - -
21/01:00am 10.1 SSE 6 8 1034.0 - 0.0 - - - - - - -
21/12:30am 10.4 SE 4 5 1034.1 - 0.0 - - - - - - -
21/12:00am 10.4 SSW 4 6 1034.2 - 0.0 - - - - - - -
 
Date/Time
EST
Temp

°C
Wind Pressure Rain
since 9am
mm
Weather Cloud Vis
km
Sea
Height
m
Swell
Dir
 
Speed
knots
Gust
knots
hPa Trend Height
m
Period
s
Dir
20/11:30pm 10.8 SSW 1 3 1034.4 - 0.0 - - - - - - -
20/11:00pm 9.9 S 5 7 1034.5 - 0.0 - - - - - - -
20/10:30pm 9.9 S 7 8 1034.9 - 0.0 - - - - - - -
20/10:00pm 9.8 S 9 11 1035.1 - 0.0 - - - - - - -
20/09:30pm 9.8 S 6 8 1035.3 - 0.0 - - - - - - -
20/09:00pm 10.1 S 6 9 1035.3 - 0.0 - - - - - - -
20/08:30pm 9.9 SSW 7 9 1035.2 - 0.0 - - - - - - -
20/08:00pm 9.9 S 8 10 1035.1 - 0.0 - - - - - - -
20/07:30pm 9.9 S 9 11 1035.1 - 0.0 - - - - - - -
20/07:00pm 10.5 SSW 8 13 1035.1 - 0.0 - - - - - - -
20/06:30pm 10.8 SW 9 13 1035.1 - 0.0 - - - - - - -
20/06:00pm 11.0 SW 10 14 1035.0 - 0.0 - - - - - - -
20/05:30pm 10.9 SW 9 12 1034.9 - 0.0 - - - - - - -
20/05:00pm 11.6 SW 11 14 1034.7 - 0.0 - - - - - - -
20/04:30pm 13.0 SW 11 14 1034.7 - 0.0 - - - - - - -
20/04:00pm 13.7 SW 9 13 1034.7 - 0.0 - - - - - - -
20/03:30pm 14.0 SW 11 14 1034.7 - 0.0 - - - - - - -
20/03:00pm 14.1 SW 10 13 1034.8 - 0.0 - - - - - - -
20/02:30pm 14.5 SW 10 15 1034.9 - 0.0 - - - - - - -
20/02:00pm 15.0 SW 10 14 1034.9 - 0.0 - - - - - - -
20/01:30pm 14.7 SSW 10 16 1035.3 - 0.0 - - - - - - -
20/01:00pm 13.6 SSW 11 15 1035.5 - 0.0 - - - - - - -
20/12:30pm 15.3 S 10 13 1035.8 - 0.0 - - - - - - -
20/12:00pm 16.2 SSE 6 10 1036.2 - 0.0 - - - - - - -
20/11:30am 15.2 S 9 13 1036.7 - 0.0 - - - - - - -
20/11:00am 14.8 SSE 8 11 1036.7 - 0.0 - - - - - - -
20/10:30am 14.9 SSE 7 10 1036.7 - 0.0 - - - - - - -
20/10:00am 14.8 SSE 8 11 1036.7 - 0.0 - - - - - - -
20/09:30am 14.6 SSE 8 11 1036.7 - 0.0 - - - - - - -
20/09:00am 14.1 SE 8 14 1036.6 - 0.0 - - - - - - -
20/08:30am 13.9 SSE 10 14 1036.5 - 0.0 - - - - - - -
20/08:00am 12.9 SE 8 12 1036.3 - 0.0 - - - - - - -
20/07:30am 11.5 SSE 10 13 1035.9 - 0.0 - - - - - - -
20/07:00am 10.5 SSE 11 16 1035.6 - 0.0 - - - - - - -
20/06:30am 10.2 SSE 11 16 1035.4 - 0.0 - - - - - - -
20/06:00am 10.6 SSE 12 15 1035.2 - 0.0 - - - - - - -
20/05:30am 10.3 SE 11 14 1034.9 - 0.0 - - - - - - -
20/05:00am 10.2 SE 12 16 1034.6 - 0.0 - - - - - - -
20/04:30am 10.8 SE 14 18 1034.4 - 0.0 - - - - - - -
20/04:00am 10.9 SE 15 19 1034.1 - 0.0 - - - - - - -
20/03:30am 10.6 S 13 17 1033.9 - 0.0 - - - - - - -
20/03:00am 10.9 SSE 13 16 1033.9 - 0.0 - - - - - - -
20/02:30am 10.9 SE 12 17 1034.0 - 0.0 - - - - - - -
20/02:00am 10.9 SE 13 19 1033.9 - 0.0 - - - - - - -
20/01:30am 11.0 SE 14 17 1034.0 - 0.0 - - - - - - -
20/01:00am 11.2 SE 14 18 1034.0 - 0.0 - - - - - - -
20/12:30am 11.1 SE 17 23 1033.7 - 0.0 - - - - - - -
20/12:00am 11.1 SE 19 23 1033.7 - 0.0 - - - - - - -
 
Date/Time
EST
Temp

°C
Wind Pressure Rain
since 9am
mm
Weather Cloud Vis
km
Sea
Height
m
Swell
Dir
 
Speed
knots
Gust
knots
hPa Trend Height
m
Period
s
Dir
19/11:30pm 11.3 SE 19 24 1033.6 - 0.0 - - - - - - -
19/11:00pm 11.5 ESE 20 24 1033.2 - 0.0 - - - - - - -
19/10:35pm 11.9 SE 21 27 1032.9 - 0.0 - - - - - - -
19/10:30pm 11.9 S 14 17 1033.1 - 0.0 - - - - - - -
19/10:00pm 12.0 S 18 22 1033.0 - 0.0 - - - - - - -
19/09:30pm 11.7 S 13 17 1032.8 - 0.0 - - - - - - -
19/09:00pm 11.8 S 17 23 1032.4 - 0.0 - - - - - - -
19/08:48pm 12.2 SSW 16 27 1032.2 - 0.0 - - - - - - -
19/08:30pm 11.8 S 14 18 1032.0 - 0.0 - - - - - - -
19/08:00pm 11.7 S 16 22 1031.6 - 0.0 - - - - - - -
19/07:30pm 12.0 SSW 18 25 1031.2 - 0.0 - - - - - - -
19/07:22pm 12.0 SSW 15 25 1031.0 - 0.0 - - - - - - -
19/07:00pm 11.7 SSW 16 24 1030.7 - 0.0 - - - - - - -
19/06:30pm 11.0 SSW 15 20 1030.2 - 0.0 - - - - - - -
19/06:00pm 11.3 SSW 16 22 1029.6 - 0.0 - - - - - - -
19/05:30pm 11.5 SSW 16 24 1029.2 - 0.0 - - - - - - -
19/05:00pm 12.0 SW 18 27 1028.6 - 0.0 - - - - - - -
19/04:30pm 12.7 SSW 20 29 1028.1 - 0.0 - - - - - - -
19/04:00pm 12.0 SW 22 32 1027.7 - 0.0 - - - - - - -
19/03:56pm 12.0 SW 21 32 1027.7 - 0.0 - - - - - - -
19/03:30pm 13.4 SSW 18 26 1027.4 - 0.0 - - - - - - -
19/03:00pm 13.1 SW 22 29 1027.1 - 0.0 - - - - - - -
19/02:51pm 13.2 SW 21 31 1027.0 - 0.0 - - - - - - -
19/02:30pm 13.1 SW 22 27 1026.8 - 0.0 - - - - - - -
19/02:00pm 13.4 SW 24 32 1026.3 - 0.0 - - - - - - -
19/01:30pm 14.1 SW 21 27 1025.9 - 0.0 - - - - - - -
19/01:00pm 13.5 SW 22 28 1025.5 - 0.0 - - - - - - -
19/12:43pm 13.7 SW 19 29 1025.4 - 0.0 - - - - - - -
19/12:30pm 13.6 SW 23 28 1025.2 - 0.0 - - - - - - -
19/12:00pm 14.8 SSW 18 25 1025.1 - 0.0 - - - - - - -
19/11:30am 14.0 SW 22 30 1024.8 - 0.0 - - - - - - -
19/11:23am 14.3 SW 22 32 1024.7 - 0.0 - - - - - - -
19/11:00am 14.3 SSW 21 29 1024.5 - 0.0 - - - - - - -
19/10:30am 13.4 SSW 25 35 1023.9 - 0.0 - - - - - - -
19/10:17am 14.1 SSW 24 34 1023.8 - 0.0 - - - - - - -
19/10:00am 13.0 SW 26 35 1023.4 - 0.0 - - - - - - -
19/09:30am 13.4 SW 26 36 1022.8 - 0.0 - - - - - - -
19/09:28am 13.0 SW 26 36 1022.8 - 0.0 - - - - - - -
19/09:00am 12.6 SW 31 38 1022.0 - 1.2 - - - - - - -
19/08:49am 12.6 SW 29 40 1021.9 - 1.2 - - - - - - -
19/08:30am 12.3 SW 33 39 1021.4 - 1.2 - - - - - - -
19/08:00am 12.0 SW 33 39 1020.6 - 1.2 - - - - - - -
19/07:30am 11.9 SW 32 38 1020.0 - 1.2 - - - - - - -
19/07:00am 12.0 SW 33 40 1018.9 - 1.2 - - - - - - -
19/06:30am 12.1 SW 33 39 1018.2 - 1.2 - - - - - - -
19/06:00am 12.0 SW 31 36 1017.6 - 1.2 - - - - - - -
19/05:30am 12.1 SW 31 37 1017.2 - 1.2 - - - - - - -
19/05:00am 12.2 SW 29 36 1016.6 - 1.2 - - - - - - -
19/04:30am 11.8 WSW 31 36 1016.1 - 1.2 - - - - - - -
19/04:22am 11.3 WSW 32 42 1015.9 - 1.2 - - - - - - -
19/04:00am 12.2 WSW 34 39 1015.4 - 1.2 - - - - - - -
19/03:30am 12.6 WSW 32 38 1015.1 - 1.2 - - - - - - -
19/03:00am 12.7 WSW 36 41 1014.3 - 1.2 - - - - - - -
19/02:30am 13.1 WSW 35 40 1014.3 - 1.2 - - - - - - -
19/02:00am 12.8 W 34 40 1014.4 - 1.2 - - - - - - -
19/01:30am 12.7 WSW 34 40 1014.3 - 1.2 - - - - - - -
19/01:00am 12.6 WSW 35 40 1014.2 - 1.2 - - - - - - -
19/12:30am 12.7 WSW 27 37 1014.0 - 1.2 - - - - - - -
19/12:26am 12.4 WSW 28 38 1014.2 - 1.2 - - - - - - -
19/12:00am 12.1 WSW 28 32 1014.0 - 1.2 - - - - - - -
 
Date/Time
EST
Temp

°C
Wind Pressure Rain
since 9am
mm
Weather Cloud Vis
km
Sea
Height
m
Swell
Dir
 
Speed
knots
Gust
knots
hPa Trend Height
m
Period
s
Dir
18/11:47pm 12.1 W 31 41 1013.7 - 1.2 - - - - - - -
18/11:30pm 12.3 W 29 35 1013.8 - 1.2 - - - - - - -

Other Formats:

Comma delimited format used in spreadsheet applications
http://www.bom.gov.au/fwo/IDT60701/IDT60701.94949.axf

JavaScript Object Notation format (JSON) in row-major order
http://www.bom.gov.au/fwo/IDT60701/IDT60701.94949.json